Time;durP1;ratioP1;P1;durP2;ratioP2;P2;SDS_P1;SDS_P2;PMS_P1;PMS_P2;Temp;Humidity;BMP_temperature;BMP_pressure;BME280_temperature;BME280_humidity;BME280_pressure;Samples;Min_cycle;Max_cycle;Signal;HPM_P1;HPM_P2
2022/04/26 03:38:30;;;;;;;17.47;12.83;;;6.50;99.90;;;;;;5080859;28;20281;-67
2022/04/26 03:40:59;;;;;;;19.23;12.77;;;6.50;99.90;;;;;;5087815;28;20280;-66
2022/04/26 03:43:24;;;;;;;17.13;12.30;;;6.50;99.90;;;;;;5086019;28;20205;-66
2022/04/26 03:45:50;;;;;;;21.20;13.03;;;6.50;99.90;;;;;;5087886;28;20201;-65
2022/04/26 03:48:15;;;;;;;18.17;12.73;;;6.60;99.90;;;;;;5086159;28;20284;-67
2022/04/26 03:50:41;;;;;;;18.17;12.87;;;6.60;99.90;;;;;;5087444;28;20197;-66
2022/04/26 03:53:06;;;;;;;20.67;13.53;;;6.60;99.90;;;;;;5085738;28;20259;-66
2022/04/26 03:55:32;;;;;;;21.53;14.47;;;6.70;99.90;;;;;;5087606;28;20217;-67
2022/04/26 03:57:57;;;;;;;23.27;16.73;;;6.70;99.90;;;;;;5085446;28;20266;-67
2022/04/26 04:00:23;;;;;;;43.10;33.93;;;6.80;99.90;;;;;;5084749;28;20310;-68
2022/04/26 04:02:49;;;;;;;25.63;13.97;;;6.80;99.90;;;;;;5085829;28;20781;-68
2022/04/26 04:05:15;;;;;;;17.87;12.87;;;6.80;99.90;;;;;;5071432;28;20228;-66
2022/04/26 04:07:40;;;;;;;21.43;13.53;;;6.80;99.90;;;;;;5085937;28;20201;-67
2022/04/26 04:10:06;;;;;;;19.10;13.23;;;6.90;99.90;;;;;;5087292;28;20190;-64
2022/04/26 04:12:32;;;;;;;18.63;12.97;;;6.80;99.90;;;;;;5085171;28;20198;-66
2022/04/26 04:14:57;;;;;;;21.13;13.43;;;6.80;99.90;;;;;;5087116;28;20193;-66
2022/04/26 04:17:23;;;;;;;17.70;12.63;;;6.80;99.90;;;;;;5084457;28;20232;-65
2022/04/26 04:19:48;;;;;;;18.57;13.17;;;6.70;99.90;;;;;;5087361;28;20177;-67
2022/04/26 04:22:14;;;;;;;22.23;15.07;;;6.60;99.90;;;;;;5085005;28;20228;-67
2022/04/26 04:24:40;;;;;;;20.03;12.63;;;6.60;99.90;;;;;;5087110;28;20656;-71
2022/04/26 04:27:06;;;;;;;21.20;15.00;;;6.70;99.90;;;;;;5084221;28;20236;-70
2022/04/26 04:29:31;;;;;;;23.10;16.10;;;6.80;99.90;;;;;;5086728;28;20213;-67
2022/04/26 04:31:57;;;;;;;25.53;15.53;;;6.90;99.90;;;;;;5085052;28;20622;-67
2022/04/26 04:34:22;;;;;;;24.70;15.73;;;6.90;99.90;;;;;;5086682;28;20186;-66
2022/04/26 04:36:48;;;;;;;21.47;14.60;;;7.00;99.90;;;;;;5084473;28;20691;-66
2022/04/26 04:39:19;;;;;;;23.90;13.77;;;7.00;99.90;;;;;;5086712;28;20689;-65
2022/04/26 04:41:46;;;;;;;20.47;13.37;;;7.00;99.90;;;;;;5080355;28;20294;-65
2022/04/26 04:44:11;;;;;;;17.80;14.10;;;7.00;99.90;;;;;;5086550;28;20189;-66
2022/04/26 04:46:36;;;;;;;25.03;15.07;;;7.20;99.90;;;;;;5086529;28;20222;-66
2022/04/26 04:49:03;;;;;;;18.07;14.50;;;7.20;99.90;;;;;;5084618;28;20296;-66
2022/04/26 04:51:28;;;;;;;23.83;15.33;;;7.30;99.90;;;;;;5086285;28;20220;-66
2022/04/26 04:53:54;;;;;;;20.83;16.00;;;7.40;99.90;;;;;;5084339;28;21204;-66
2022/04/26 04:56:19;;;;;;;26.00;17.10;;;7.40;99.90;;;;;;5086303;28;20308;-66
2022/04/26 04:58:45;;;;;;;24.27;15.77;;;7.50;99.90;;;;;;5084286;28;20194;-66
2022/04/26 05:01:10;;;;;;;20.47;14.70;;;7.60;99.90;;;;;;5086026;28;20192;-66
2022/04/26 05:03:36;;;;;;;21.57;14.77;;;7.60;99.90;;;;;;5084509;28;20212;-66
2022/04/26 05:06:01;;;;;;;20.60;13.77;;;7.70;99.90;;;;;;5085756;28;20279;-66
2022/04/26 05:08:27;;;;;;;20.83;14.57;;;7.90;99.90;;;;;;5084273;28;20212;-67
2022/04/26 05:10:53;;;;;;;20.27;14.67;;;7.90;99.90;;;;;;5074937;28;20224;-67
2022/04/26 05:13:19;;;;;;;24.50;15.80;;;7.90;99.90;;;;;;5084282;28;20221;-67
2022/04/26 05:15:45;;;;;;;22.53;14.97;;;7.80;99.90;;;;;;5085965;28;20217;-68
2022/04/26 05:18:14;;;;;;;21.43;15.67;;;7.80;99.90;;;;;;5076801;28;20722;-67
2022/04/26 05:20:39;;;;;;;22.27;15.43;;;8.00;99.90;;;;;;5085837;28;20194;-66
2022/04/26 05:25:49;;;;;;;19.33;14.73;;;8.30;99.90;;;;;;5085503;28;20212;-66
2022/04/26 05:28:15;;;;;;;18.43;15.00;;;8.30;99.90;;;;;;5076397;28;20597;-67
2022/04/26 05:30:40;;;;;;;19.80;11.50;;;8.30;99.90;;;;;;5085423;28;20198;-67
2022/04/26 05:33:06;;;;;;;13.77;10.00;;;8.30;99.90;;;;;;5083536;28;20339;-66
2022/04/26 05:35:31;;;;;;;14.07;8.57;;;8.30;99.90;;;;;;5085310;28;20332;-66
2022/04/26 05:37:57;;;;;;;12.10;9.67;;;8.50;99.90;;;;;;5083574;28;20250;-66
2022/04/26 05:40:22;;;;;;;14.63;9.03;;;8.50;99.90;;;;;;5084766;28;20189;-69
2022/04/26 05:42:48;;;;;;;13.27;9.10;;;8.50;99.90;;;;;;5083283;28;20191;-66
2022/04/26 05:45:13;;;;;;;9.97;7.77;;;8.50;99.90;;;;;;5085055;28;20200;-67
2022/04/26 05:47:43;;;;;;;12.77;9.10;;;8.50;99.90;;;;;;5083099;28;20269;-66
2022/04/26 05:50:13;;;;;;;12.67;8.10;;;8.60;99.90;;;;;;5085007;28;20564;-65
2022/04/26 05:52:38;;;;;;;10.67;8.07;;;8.70;99.90;;;;;;5082862;28;20194;-66
2022/04/26 05:55:05;;;;;;;11.50;7.83;;;8.70;99.90;;;;;;5079805;28;20187;-66
2022/04/26 05:57:31;;;;;;;10.70;8.03;;;8.80;99.90;;;;;;5083193;28;20691;-66
2022/04/26 05:59:56;;;;;;;13.83;7.40;;;8.80;99.90;;;;;;5085348;28;20190;-67
2022/04/26 06:02:22;;;;;;;9.77;6.60;;;8.90;99.90;;;;;;5069468;28;20205;-67
2022/04/26 06:04:47;;;;;;;11.20;6.47;;;8.90;99.90;;;;;;5085443;28;20201;-66
2022/04/26 06:07:13;;;;;;;6.90;6.07;;;9.10;99.90;;;;;;5079152;28;20243;-66
2022/04/26 06:09:40;;;;;;;12.50;6.57;;;9.20;99.90;;;;;;5085164;28;20202;-66
2022/04/26 06:12:06;;;;;;;10.90;6.83;;;9.30;99.90;;;;;;5082723;28;20210;-66
2022/04/26 06:14:31;;;;;;;7.97;6.20;;;9.50;99.90;;;;;;5085291;28;20185;-66
2022/04/26 06:16:57;;;;;;;10.53;6.73;;;9.50;99.90;;;;;;5082145;28;20308;-64
2022/04/26 06:19:22;;;;;;;7.87;6.40;;;9.50;99.90;;;;;;5085165;28;20183;-66
2022/04/26 06:21:48;;;;;;;10.03;7.60;;;9.60;99.90;;;;;;5082694;28;20185;-65
2022/04/26 06:24:13;;;;;;;8.50;7.57;;;9.70;99.90;;;;;;5085122;28;20270;-65
2022/04/26 06:26:39;;;;;;;7.17;6.47;;;9.80;99.90;;;;;;5084676;28;20306;-65
2022/04/26 06:29:04;;;;;;;17.27;6.30;;;9.80;99.90;;;;;;5082821;28;20229;-65
2022/04/26 06:31:30;;;;;;;7.33;5.63;;;9.80;99.90;;;;;;5078751;28;20674;-65
2022/04/26 06:33:55;;;;;;;9.37;6.17;;;9.90;99.90;;;;;;5082898;28;20669;-66
2022/04/26 06:36:21;;;;;;;10.60;6.17;;;9.90;99.90;;;;;;5084441;28;20261;-65
2022/04/26 06:38:46;;;;;;;7.87;6.50;;;10.00;99.20;;;;;;5083217;28;20190;-65
2022/04/26 06:41:11;;;;;;;8.60;6.27;;;10.00;99.20;;;;;;5076186;28;20189;-66
2022/04/26 06:43:37;;;;;;;7.10;5.60;;;10.10;99.20;;;;;;5087272;28;20290;-66
2022/04/26 06:46:02;;;;;;;15.60;6.13;;;10.10;99.00;;;;;;5088172;28;20684;-66
2022/04/26 06:48:28;;;;;;;9.53;6.63;;;10.20;98.60;;;;;;5086863;28;20203;-65
2022/04/26 06:50:57;;;;;;;5.77;3.93;;;10.30;97.70;;;;;;5088367;28;20240;-66
2022/04/26 06:53:23;;;;;;;5.17;4.67;;;10.40;96.60;;;;;;5086493;28;20196;-65
2022/04/26 06:55:48;;;;;;;7.63;4.30;;;10.40;96.40;;;;;;5088015;28;20211;-66
2022/04/26 06:58:14;;;;;;;4.13;3.67;;;10.40;95.80;;;;;;5082589;28;20253;-67
2022/04/26 07:00:39;;;;;;;4.13;3.13;;;10.40;95.20;;;;;;5087822;28;20285;-67
2022/04/26 07:03:05;;;;;;;4.47;3.53;;;10.40;94.90;;;;;;5086255;28;20200;-66
2022/04/26 07:05:30;;;;;;;3.93;3.53;;;10.60;94.40;;;;;;5086876;28;20230;-67
2022/04/26 07:07:56;;;;;;;4.37;3.97;;;10.60;94.60;;;;;;5086201;28;20224;-67
2022/04/26 07:10:22;;;;;;;3.73;3.43;;;10.60;93.80;;;;;;5068848;28;20195;-66
2022/04/26 07:12:48;;;;;;;4.80;3.10;;;10.60;93.40;;;;;;5085802;28;20348;-66
2022/04/26 07:15:14;;;;;;;5.03;3.60;;;10.70;93.40;;;;;;5087929;28;20235;-66
2022/04/26 07:17:40;;;;;;;5.20;2.90;;;10.70;93.30;;;;;;5086004;28;20712;-66
2022/04/26 07:20:08;;;;;;;4.97;3.07;;;10.80;93.60;;;;;;5088086;28;20199;-65
2022/04/26 07:22:34;;;;;;;3.53;2.87;;;11.10;92.30;;;;;;5085856;28;20205;-66
2022/04/26 07:24:59;;;;;;;3.10;2.67;;;11.20;91.80;;;;;;5088553;28;20195;-66
2022/04/26 07:27:25;;;;;;;5.03;3.27;;;11.40;91.50;;;;;;5085616;28;20258;-66
2022/04/26 07:29:51;;;;;;;3.33;2.50;;;11.40;91.70;;;;;;5087713;28;20190;-66
2022/04/26 07:32:17;;;;;;;2.97;2.60;;;11.40;90.60;;;;;;5086298;28;20200;-66
2022/04/26 07:34:45;;;;;;;6.73;2.40;;;11.50;91.00;;;;;;5089028;28;20535;-67
2022/04/26 07:37:11;;;;;;;3.57;2.00;;;11.80;89.10;;;;;;5086016;28;20436;-68
2022/04/26 07:39:36;;;;;;;5.33;2.67;;;11.70;86.30;;;;;;5088465;28;20189;-67
2022/04/26 07:42:04;;;;;;;2.53;2.30;;;11.70;86.80;;;;;;5084590;28;20203;-67
2022/04/26 07:44:30;;;;;;;2.77;2.30;;;11.60;87.00;;;;;;5087870;28;20189;-66
2022/04/26 07:46:56;;;;;;;3.40;2.80;;;11.50;86.70;;;;;;5085596;28;20245;-66
2022/04/26 07:49:26;;;;;;;3.87;3.07;;;11.40;87.10;;;;;;5087628;28;20191;-66
2022/04/26 07:51:52;;;;;;;7.97;3.13;;;11.40;87.00;;;;;;5085186;28;20225;-66
2022/04/26 07:54:19;;;;;;;4.80;2.53;;;11.40;86.40;;;;;;5087669;28;20185;-67
2022/04/26 07:56:45;;;;;;;4.00;3.20;;;11.50;86.10;;;;;;5085839;28;20225;-66
2022/04/26 07:59:11;;;;;;;3.83;2.87;;;11.50;85.70;;;;;;5087579;28;20245;-67
2022/04/26 08:01:36;;;;;;;4.83;3.53;;;11.60;84.00;;;;;;5087597;28;20195;-67
2022/04/26 08:04:02;;;;;;;2.87;2.43;;;11.80;81.20;;;;;;5085275;28;20207;-66
2022/04/26 08:06:28;;;;;;;3.03;2.27;;;12.00;79.20;;;;;;5087176;28;20218;-67
2022/04/26 08:08:54;;;;;;;2.93;2.73;;;11.80;79.80;;;;;;5085358;28;20721;-66
2022/04/26 08:11:21;;;;;;;3.83;2.53;;;11.70;81.00;;;;;;5087048;28;20201;-68
2022/04/26 08:13:47;;;;;;;5.43;2.60;;;11.70;82.00;;;;;;5085815;28;20664;-65
2022/04/26 08:16:13;;;;;;;4.37;3.13;;;11.80;82.30;;;;;;5086415;28;20356;-66
2022/04/26 08:18:38;;;;;;;2.90;2.70;;;11.90;81.80;;;;;;5085497;28;20216;-67
2022/04/26 08:21:07;;;;;;;2.63;2.27;;;12.00;81.10;;;;;;5083445;28;20196;-65
2022/04/26 08:27:22;;;;;;;3.23;2.77;;;12.10;80.40;;;;;;5084900;28;20631;-65
2022/04/26 08:29:12;;;;;;;2.90;2.70;;;12.00;80.60;;;;;;5069361;28;20680;-65
2022/04/26 08:31:38;;;;;;;3.13;2.80;;;12.10;81.30;;;;;;5068973;28;20565;-65
2022/04/26 08:34:04;;;;;;;3.67;3.07;;;12.10;79.90;;;;;;5084887;28;20200;-66
2022/04/26 08:36:29;;;;;;;2.27;2.07;;;12.00;81.20;;;;;;5086581;28;20686;-66
2022/04/26 08:38:55;;;;;;;2.70;2.50;;;12.40;75.90;;;;;;5084182;28;20294;-65
2022/04/26 08:41:20;;;;;;;4.43;2.53;;;12.40;78.80;;;;;;5086538;28;20384;-67
2022/04/26 08:43:45;;;;;;;2.20;2.00;;;12.50;78.10;;;;;;5084615;28;20205;-66
2022/04/26 08:46:11;;;;;;;3.10;2.80;;;12.40;78.20;;;;;;5086106;28;20193;-66
2022/04/26 08:51:21;;;;;;;2.63;2.37;;;12.40;76.50;;;;;;5084895;28;20682;-66
2022/04/26 08:53:47;;;;;;;3.57;2.40;;;12.60;75.30;;;;;;5084597;28;20233;-66
2022/04/26 08:56:13;;;;;;;3.87;2.30;;;12.70;78.10;;;;;;5066648;28;20234;-66
2022/04/26 08:58:39;;;;;;;2.47;2.27;;;12.90;75.30;;;;;;5080556;28;20238;-66
2022/04/26 09:01:18;;;;;;;3.30;2.93;;;13.10;76.40;;;;;;5085743;28;20197;-66
2022/04/26 09:03:54;;;;;;;3.00;2.80;;;13.00;75.50;;;;;;5081045;28;20194;-66
2022/04/26 09:06:21;;;;;;;5.47;2.90;;;13.20;73.80;;;;;;5086024;28;20204;-66
2022/04/26 09:08:48;;;;;;;4.77;2.93;;;13.20;74.40;;;;;;5084014;28;20209;-66
2022/04/26 09:11:33;;;;;;;2.70;2.50;;;13.20;75.30;;;;;;5085714;28;20193;-66
2022/04/26 09:13:59;;;;;;;3.57;2.80;;;13.40;74.20;;;;;;5082814;28;20706;-66
2022/04/26 09:16:25;;;;;;;3.87;2.70;;;13.40;73.70;;;;;;5085065;28;20261;-66
2022/04/26 09:18:53;;;;;;;3.43;2.90;;;13.30;75.10;;;;;;5083816;28;20654;-66
2022/04/26 09:21:20;;;;;;;4.10;3.30;;;13.40;74.90;;;;;;5085349;28;20217;-66
2022/04/26 09:23:46;;;;;;;3.03;2.80;;;13.30;75.20;;;;;;5084022;28;20208;-66
2022/04/26 09:26:17;;;;;;;3.40;2.60;;;13.50;74.40;;;;;;5085516;28;20216;-67
2022/04/26 09:28:45;;;;;;;8.97;3.40;;;13.50;75.80;;;;;;5080309;28;20316;-66
2022/04/26 09:31:25;;;;;;;8.83;3.57;;;13.30;74.00;;;;;;5085394;28;20190;-67
2022/04/26 09:33:53;;;;;;;3.47;3.17;;;13.30;75.00;;;;;;5083036;28;20216;-66
2022/04/26 09:36:24;;;;;;;3.00;2.70;;;13.40;73.50;;;;;;5085121;28;20273;-66
2022/04/26 09:39:00;;;;;;;3.57;3.27;;;13.40;72.50;;;;;;5083534;28;20210;-66
2022/04/26 09:41:27;;;;;;;3.87;2.73;;;13.40;73.40;;;;;;5085505;28;20215;-66
2022/04/26 09:44:04;;;;;;;3.40;3.10;;;13.40;73.20;;;;;;5083638;28;20288;-66
2022/04/26 09:46:50;;;;;;;3.53;2.60;;;13.60;71.30;;;;;;5079729;28;20188;-66
2022/04/26 09:49:21;;;;;;;3.90;2.33;;;13.70;71.80;;;;;;5066214;28;20192;-67
2022/04/26 09:51:49;;;;;;;3.40;2.43;;;13.90;71.60;;;;;;5075104;28;20197;-66
2022/04/26 09:54:15;;;;;;;3.47;2.53;;;14.20;72.20;;;;;;5085506;28;20196;-66
2022/04/26 09:56:45;;;;;;;2.97;2.40;;;14.10;73.30;;;;;;5085213;28;20447;-66
2022/04/26 09:59:14;;;;;;;3.30;2.97;;;14.10;72.10;;;;;;5076678;28;20600;-66
2022/04/26 10:01:47;;;;;;;4.33;2.80;;;14.20;71.90;;;;;;5085076;28;20193;-66
2022/04/26 10:04:17;;;;;;;3.13;2.77;;;14.20;74.50;;;;;;5076485;28;20292;-66
2022/04/26 10:06:45;;;;;;;4.13;2.63;;;14.70;72.20;;;;;;5084693;28;20197;-66
2022/04/26 10:09:12;;;;;;;2.43;2.27;;;14.80;71.80;;;;;;5071816;28;20487;-67
2022/04/26 10:11:38;;;;;;;3.17;2.97;;;15.10;70.40;;;;;;5085073;28;20223;-66
2022/04/26 10:14:07;;;;;;;3.20;2.97;;;15.00;70.30;;;;;;5082677;28;20329;-66
2022/04/26 10:16:33;;;;;;;4.60;2.40;;;15.20;70.50;;;;;;5084302;28;20217;-66
2022/04/26 10:19:04;;;;;;;5.53;2.50;;;15.40;70.30;;;;;;5083361;28;20189;-65
2022/04/26 10:21:29;;;;;;;2.87;2.67;;;15.50;67.00;;;;;;5065071;28;20652;-65
2022/04/26 10:23:55;;;;;;;2.80;2.33;;;15.50;66.40;;;;;;5082221;28;20208;-66
2022/04/26 10:26:22;;;;;;;2.77;2.60;;;15.50;66.30;;;;;;5084575;28;20304;-67
2022/04/26 10:28:51;;;;;;;3.77;3.40;;;15.30;63.60;;;;;;5082784;28;20229;-66
2022/04/26 10:31:17;;;;;;;3.10;2.60;;;15.30;72.10;;;;;;5084603;28;20197;-68
2022/04/26 10:33:47;;;;;;;3.97;2.50;;;15.50;66.30;;;;;;5080198;28;20205;-68
2022/04/26 10:36:31;;;;;;;6.63;2.97;;;15.50;66.90;;;;;;5084568;28;20353;-66
2022/04/26 10:39:05;;;;;;;3.67;3.17;;;15.60;66.10;;;;;;5082953;28;20205;-66
2022/04/26 10:41:41;;;;;;;3.10;2.70;;;15.60;68.80;;;;;;5084122;28;20661;-66
2022/04/26 10:44:12;;;;;;;2.80;2.60;;;15.50;68.50;;;;;;5082237;28;20197;-66
2022/04/26 10:46:38;;;;;;;4.20;3.10;;;15.30;67.70;;;;;;5084498;28;20341;-67
2022/04/26 10:49:38;;;;;;;4.90;2.87;;;15.30;67.80;;;;;;5083038;28;20233;-66
2022/04/26 10:52:13;;;;;;;4.00;2.90;;;15.90;65.90;;;;;;5076673;28;20302;-68
2022/04/26 10:55:07;;;;;;;3.00;2.50;;;16.60;66.30;;;;;;5084884;28;20254;-65
2022/04/26 10:57:41;;;;;;;2.70;2.50;;;17.30;64.70;;;;;;5076582;28;20212;-66
2022/04/26 11:00:11;;;;;;;3.13;2.83;;;18.00;63.80;;;;;;5084252;28;20199;-65
2022/04/26 11:02:42;;;;;;;3.40;2.80;;;18.10;62.10;;;;;;5081949;28;20195;-65
2022/04/26 11:05:13;;;;;;;7.10;2.60;;;18.50;60.60;;;;;;5084670;28;20188;-66
2022/04/26 11:07:41;;;;;;;3.30;2.73;;;18.40;58.50;;;;;;5081622;28;20203;-66
2022/04/26 11:10:08;;;;;;;2.97;2.77;;;18.80;57.00;;;;;;5084270;28;20216;-67
2022/04/26 11:12:37;;;;;;;3.17;2.40;;;18.80;57.50;;;;;;5081882;28;20206;-67
2022/04/26 11:15:05;;;;;;;4.20;2.37;;;19.60;54.10;;;;;;5083969;28;20183;-66
2022/04/26 11:17:31;;;;;;;4.80;2.93;;;20.10;54.60;;;;;;5081353;28;20559;-64
2022/04/26 11:20:03;;;;;;;3.87;1.97;;;20.20;52.10;;;;;;5084361;28;20184;-65
2022/04/26 11:22:29;;;;;;;3.13;2.83;;;20.10;50.70;;;;;;5080387;28;20354;-65
2022/04/26 11:28:00;;;;;;;9.73;2.80;;;20.10;53.60;;;;;;5084011;28;20240;-67
2022/04/26 11:30:30;;;;;;;2.97;2.47;;;20.50;51.80;;;;;;5069406;28;20893;-66
2022/04/26 11:32:57;;;;;;;5.72;2.60;;;20.90;49.10;;;;;;5085276;28;20471;-69
2022/04/26 11:35:23;;;;;;;2.90;2.60;;;20.60;50.30;;;;;;5087654;28;20208;-67
2022/04/26 11:37:50;;;;;;;3.88;2.70;;;20.80;50.20;;;;;;5085590;28;20210;-67
2022/04/26 11:40:27;;;;;;;2.33;2.20;;;21.80;46.80;;;;;;5087783;28;20195;-67
2022/04/26 11:42:54;;;;;;;2.90;2.60;;;22.30;49.20;;;;;;5086202;28;20188;-69
2022/04/26 11:45:21;;;;;;;5.65;3.13;;;22.70;46.20;;;;;;5087823;28;20198;-69
2022/04/26 11:47:48;;;;;;;3.22;2.92;;;22.50;46.80;;;;;;5086099;28;20601;-69
2022/04/26 11:50:25;;;;;;;5.15;3.10;;;22.60;44.20;;;;;;5087881;28;20192;-69
2022/04/26 11:52:54;;;;;;;4.95;2.75;;;23.10;44.50;;;;;;5075588;28;20195;-68
2022/04/26 11:55:30;;;;;;;3.22;2.85;;;23.20;43.60;;;;;;5087454;28;20275;-69
2022/04/26 11:58:12;;;;;;;3.28;2.40;;;23.10;45.30;;;;;;5084275;28;20560;-70
2022/04/26 12:00:49;;;;;;;3.95;2.47;;;23.10;43.40;;;;;;5086736;28;20178;-68
2022/04/26 12:03:16;;;;;;;4.63;2.60;;;23.70;42.50;;;;;;5083921;28;20819;-67
2022/04/26 12:05:42;;;;;;;2.78;2.58;;;24.10;44.60;;;;;;5086980;28;20268;-66
2022/04/26 12:08:14;;;;;;;2.83;2.60;;;24.50;42.60;;;;;;5084973;28;20276;-69
2022/04/26 12:10:39;;;;;;;3.08;2.80;;;24.70;42.20;;;;;;5086744;28;20197;-68
2022/04/26 12:13:06;;;;;;;2.80;2.60;;;25.00;39.50;;;;;;5085164;28;20604;-69
2022/04/26 12:15:35;;;;;;;3.72;2.67;;;24.20;40.00;;;;;;5076887;28;20213;-70
2022/04/26 12:18:08;;;;;;;2.72;2.53;;;23.30;41.30;;;;;;5084871;28;20206;-69
2022/04/26 12:20:36;;;;;;;3.22;2.90;;;23.90;41.60;;;;;;5073463;28;20185;-67
2022/04/26 12:23:06;;;;;;;4.72;3.20;;;24.90;38.60;;;;;;5085016;28;20201;-68
2022/04/26 12:25:35;;;;;;;3.00;2.63;;;24.80;40.40;;;;;;5087335;28;20213;-70
2022/04/26 12:28:03;;;;;;;3.75;2.88;;;24.80;39.20;;;;;;5083169;28;20671;-69
2022/04/26 12:30:30;;;;;;;2.97;2.78;;;24.80;38.90;;;;;;5087352;28;20217;-69
2022/04/26 12:32:55;;;;;;;5.50;3.20;;;24.90;38.00;;;;;;5084544;28;20190;-69
2022/04/26 12:35:21;;;;;;;4.25;2.63;;;24.80;39.80;;;;;;5086272;28;20190;-67
2022/04/26 12:37:47;;;;;;;3.67;2.45;;;25.30;38.20;;;;;;5083762;28;20194;-68
2022/04/26 12:40:17;;;;;;;4.30;3.90;;;26.10;37.80;;;;;;5087046;28;20162;-67
2022/04/26 12:42:45;;;;;;;;;;;26.60;38.40;;;;;;5085077;28;20081;-67
2022/04/26 12:45:11;;;;;;;;;;;26.40;35.00;;;;;;5086963;28;19908;-70
2022/04/26 12:50:42;;;;;;;;;;;24.70;53.20;;;;;;5086910;28;19914;-72
2022/04/26 12:53:07;;;;;;;;;;;24.50;47.30;;;;;;5065570;28;20379;-71
2022/04/26 12:55:34;;;;;;;;;;;23.50;51.60;;;;;;5066552;28;19912;-71
2022/04/26 12:58:01;;;;;;;;;;;24.60;40.40;;;;;;5087352;28;20306;-73
2022/04/26 13:00:27;;;;;;;;;;;24.80;39.20;;;;;;5084997;28;20560;-72
2022/04/26 13:02:54;;;;;;;;;;;24.70;43.60;;;;;;5086842;28;20328;-72
2022/04/26 13:05:21;;;;;;;;;;;24.30;40.40;;;;;;5086859;28;19915;-72
2022/04/26 13:07:47;;;;;;;;;;;23.60;41.10;;;;;;5084989;28;19918;-72
2022/04/26 13:10:16;;;;;;;;;;;22.30;41.40;;;;;;5086957;28;20006;-72
2022/04/26 13:12:42;;;;;;;;;;;22.00;41.80;;;;;;5084641;28;19908;-71
2022/04/26 13:15:11;;;;;;;;;;;21.60;40.30;;;;;;5087819;28;19908;-72
2022/04/26 13:17:37;;;;;;;;;;;21.40;40.90;;;;;;5084974;28;20006;-70
2022/04/26 13:20:06;;;;;;;;;;;21.10;39.30;;;;;;5086518;28;20345;-74
2022/04/26 13:22:35;;;;;;;;;;;20.30;42.30;;;;;;5084730;28;19908;-70
2022/04/26 13:25:03;;;;;;;;;;;19.80;42.00;;;;;;5086659;28;19908;-71
2022/04/26 13:27:29;;;;;;;;;;;19.80;42.00;;;;;;5083753;28;19923;-71
2022/04/26 13:29:55;;;;;;;;;;;19.50;42.00;;;;;;5086312;28;19915;-72
2022/04/26 13:32:20;;;;;;;;;;;19.00;41.90;;;;;;5083989;28;19912;-70
2022/04/26 13:34:46;;;;;;;;;;;19.00;43.90;;;;;;5085443;28;19935;-71
2022/04/26 13:37:11;;;;;;;;;;;18.90;43.40;;;;;;5083455;28;19923;-72
2022/04/26 13:39:39;;;;;;;;;;;19.10;42.20;;;;;;5085885;28;19912;-73
2022/04/26 13:42:09;;;;;;;;;;;19.80;42.10;;;;;;5084217;28;20487;-72
2022/04/26 13:44:35;;;;;;;;;;;21.10;41.70;;;;;;5085792;28;19916;-72
2022/04/26 13:47:02;;;;;;;;;;;22.20;38.80;;;;;;5083670;28;19999;-72
2022/04/26 13:49:28;;;;;;;;;;;22.80;41.00;;;;;;5085758;28;19939;-69
2022/04/26 13:51:53;;;;;;;;;;;23.30;40.40;;;;;;5079662;28;20294;-68
2022/04/26 13:54:19;;;;;;;;;;;23.40;39.40;;;;;;5085859;28;19957;-67
2022/04/26 13:56:49;;;;;;;;;;;24.40;39.70;;;;;;5081952;28;19963;-71
2022/04/26 13:59:15;;;;;;;;;;;24.80;37.20;;;;;;5083122;28;20327;-71
2022/04/26 14:01:43;;;;;;;;;;;25.60;37.60;;;;;;5085813;28;19911;-73
2022/04/26 14:04:09;;;;;;;;;;;25.70;37.30;;;;;;5081725;28;20042;-73
2022/04/26 14:06:34;;;;;;;;;;;26.00;37.40;;;;;;5085270;28;20027;-71
2022/04/26 14:08:59;;;;;;;;;;;26.30;35.60;;;;;;5083671;28;20008;-72
2022/04/26 14:11:25;;;;;;;;;;;26.40;36.10;;;;;;5085296;28;20343;-72
2022/04/26 14:22:03;;;;;;;;;;;26.80;32.40;;;;;;5079492;28;20025;-61
2022/04/26 14:24:28;;;;;;;;;;;25.10;34.00;;;;;;5083724;28;19929;-60
2022/04/26 14:26:54;;;;;;;;;;;23.70;34.00;;;;;;5084808;28;19919;-61
2022/04/26 14:29:19;;;;;;;;;;;22.40;36.80;;;;;;5083660;28;19915;-58
2022/04/26 14:31:45;;;;;;;;;;;21.70;36.70;;;;;;5085101;28;19912;-58
2022/04/26 14:34:11;;;;;;;;;;;21.20;37.80;;;;;;5083137;28;19912;-60
2022/04/26 14:36:37;;;;;;;;;;;20.90;37.50;;;;;;5075975;28;19922;-60
2022/04/26 14:39:05;;;;;;;;;;;20.70;38.20;;;;;;5083577;28;19983;-61
2022/04/26 14:41:31;;;;;;;;;;;20.40;37.40;;;;;;5076120;28;19923;-60
2022/04/26 14:43:56;;;;;;;;;;;20.20;38.10;;;;;;5083571;28;19919;-59
2022/04/26 14:46:21;;;;;;;;;;;20.30;37.20;;;;;;5085612;28;20427;-59
2022/04/26 14:48:47;;;;;;;;;;;20.80;38.20;;;;;;5083136;28;19974;-59
2022/04/26 14:51:12;;;;;;;;;;;21.70;36.50;;;;;;5084899;28;20003;-58
2022/04/26 14:53:40;;;;;;;;;;;22.10;35.40;;;;;;5083464;28;20719;-59
2022/04/26 14:56:07;;;;;;;;;;;22.50;36.30;;;;;;5084690;28;20585;-59
2022/04/26 14:58:34;;;;;;;;;;;22.90;35.80;;;;;;5082916;28;19912;-60
2022/04/26 15:01:00;;;;;;;;;;;22.20;34.50;;;;;;5087935;28;19904;-60
2022/04/26 15:03:25;;;;;;;;;;;21.50;35.60;;;;;;5084609;28;19915;-59
2022/04/26 15:05:51;;;;;;;;;;;21.10;37.10;;;;;;5089366;28;20371;-59
2022/04/26 15:11:01;;;;;;;;;;;20.30;37.70;;;;;;5089215;28;19953;-59
2022/04/26 15:18:54;;;;;;;;;;;19.50;38.70;;;;;;5086358;28;20555;-59
2022/04/26 15:21:19;;;;;;;;;;;19.10;38.30;;;;;;5087613;28;19979;-60
2022/04/26 15:23:45;;;;;;;;;;;19.00;38.70;;;;;;5085617;28;19912;-59
2022/04/26 15:26:11;;;;;;;;;;;19.00;39.30;;;;;;5087434;28;19915;-59
2022/04/26 15:28:38;;;;;;;;;;;18.80;39.70;;;;;;5085539;28;19927;-60
2022/04/26 15:31:04;;;;;;;;;;;18.70;38.90;;;;;;5088731;28;20299;-60
2022/04/26 15:33:30;;;;;;;;;;;18.60;39.80;;;;;;5085044;28;19946;-60
2022/04/26 15:35:56;;;;;;;;;;;18.60;39.40;;;;;;5087020;28;19959;-60
2022/04/26 15:38:22;;;;;;;;;;;18.60;41.20;;;;;;5085124;28;19919;-60
2022/04/26 15:40:47;;;;;;;;;;;18.60;42.30;;;;;;5087828;28;19908;-59
2022/04/26 15:43:13;;;;;;;;;;;18.60;41.60;;;;;;5086034;28;20422;-59
2022/04/26 15:45:39;;;;;;;;;;;18.40;42.30;;;;;;5088238;28;19904;-62
2022/04/26 15:48:05;;;;;;;;;;;18.30;41.50;;;;;;5085514;28;20321;-59
2022/04/26 15:50:30;;;;;;;;;;;18.30;43.70;;;;;;5087775;28;20014;-59
2022/04/26 15:52:56;;;;;;;;;;;18.30;42.10;;;;;;5086473;28;19916;-59
2022/04/26 15:55:22;;;;;;;;;;;18.40;42.40;;;;;;5088324;28;20010;-59
2022/04/26 15:57:48;;;;;;;;;;;18.40;43.90;;;;;;5086135;28;19914;-59
2022/04/26 16:00:14;;;;;;;;;;;18.40;41.60;;;;;;5087651;28;19918;-58
2022/04/26 16:02:42;;;;;;;;;;;18.30;41.70;;;;;;5086020;28;19998;-58
2022/04/26 16:05:07;;;;;;;;;;;18.50;43.00;;;;;;5087701;28;19912;-59
2022/04/26 16:07:33;;;;;;;;;;;19.00;43.00;;;;;;5085326;28;20627;-60
2022/04/26 16:21:06;;;;;;;;;;;19.20;40.50;;;;;;5081576;28;19954;-71
2022/04/26 16:23:31;;;;;;;;;;;19.20;40.70;;;;;;5087052;28;19904;-70
2022/04/26 16:26:01;;;;;;;;;;;19.20;40.90;;;;;;5084986;28;20386;-70
2022/04/26 16:28:30;;;;;;;;;;;19.00;41.60;;;;;;5084117;28;20346;-69
2022/04/26 16:30:56;;;;;;;;;;;18.80;41.70;;;;;;5084809;28;19938;-68
2022/04/26 16:33:21;;;;;;;;;;;18.70;42.30;;;;;;5081536;28;19908;-69
2022/04/26 16:35:46;;;;;;;;;;;19.00;44.00;;;;;;5085720;28;20052;-69
2022/04/26 16:38:13;;;;;;;;;;;19.00;42.50;;;;;;5083796;28;19931;-69
2022/04/26 16:40:39;;;;;;;;;;;19.10;42.40;;;;;;5085824;28;19916;-69
2022/04/26 16:43:04;;;;;;;;;;;19.20;42.10;;;;;;5083903;28;19965;-69
2022/04/26 16:45:30;;;;;;;;;;;18.90;42.80;;;;;;5085640;28;19916;-70
2022/04/26 16:47:56;;;;;;;;;;;18.80;42.10;;;;;;5083637;28;19934;-69
2022/04/26 16:50:22;;;;;;;;;;;18.80;42.20;;;;;;5085833;28;20370;-70
2022/04/26 16:52:49;;;;;;;;;;;18.60;42.00;;;;;;5084135;28;19919;-68
2022/04/26 16:55:15;;;;;;;;;;;18.50;44.10;;;;;;5085948;28;19908;-69
2022/04/26 16:57:40;;;;;;;;;;;18.40;43.80;;;;;;5082171;28;20282;-70
2022/04/26 17:00:06;;;;;;;;;;;18.20;43.70;;;;;;5085140;28;19959;-69
2022/04/26 17:02:33;;;;;;;;;;;18.20;43.90;;;;;;5083515;28;19941;-69
2022/04/26 17:04:58;;;;;;;;;;;18.40;43.20;;;;;;5085325;28;20037;-70
2022/04/26 17:07:25;;;;;;;;;;;18.50;42.80;;;;;;5084135;28;19912;-68
2022/04/26 17:09:50;;;;;;;;;;;18.70;42.60;;;;;;5086411;28;19947;-68
2022/04/26 17:12:16;;;;;;;;;;;18.80;42.40;;;;;;5083869;28;20019;-77
2022/04/26 17:14:42;;;;;;;;;;;19.00;43.10;;;;;;5087744;28;19915;-81
2022/04/26 17:17:08;;;;;;;;;;;19.20;41.70;;;;;;5085436;28;19912;-75
2022/04/26 17:19:33;;;;;;;;;;;19.20;42.20;;;;;;5086217;28;19908;-74
2022/04/26 17:21:59;;;;;;;;;;;19.10;42.40;;;;;;5084030;28;20385;-72
2022/04/26 17:27:10;;;;;;;;;;;19.00;42.10;;;;;;5074749;28;19930;-74
2022/04/26 17:29:36;;;;;;;;;;;19.10;42.30;;;;;;5085713;28;19904;-76
2022/04/26 17:32:01;;;;;;;;;;;19.00;42.50;;;;;;5083706;28;19918;-76
2022/04/26 17:34:27;;;;;;;;;;;18.80;42.20;;;;;;5085273;28;19929;-77